sensor_id;sensor_type;location;lat;lon;timestamp;P1;P2;P0
47741;PMS5003;33504;52.066;6.096;2023-06-14T00:01:13;9;7;
47741;PMS5003;33504;52.066;6.096;2023-06-14T00:03:40;9;9;
47741;PMS5003;33504;52.066;6.096;2023-06-14T00:06:07;9;8;
47741;PMS5003;33504;52.066;6.096;2023-06-14T00:08:34;10;9;
47741;PMS5003;33504;52.066;6.096;2023-06-14T00:11:01;9;8;
47741;PMS5003;33504;52.066;6.096;2023-06-14T00:13:29;9;9;
47741;PMS5003;33504;52.066;6.096;2023-06-14T00:15:55;10;9;
47741;PMS5003;33504;52.066;6.096;2023-06-14T00:18:23;9;9;
47741;PMS5003;33504;52.066;6.096;2023-06-14T00:20:50;9;8;
47741;PMS5003;33504;52.066;6.096;2023-06-14T00:23:18;10;9;
47741;PMS5003;33504;52.066;6.096;2023-06-14T00:25:45;11;10;
47741;PMS5003;33504;52.066;6.096;2023-06-14T00:28:12;10;10;
47741;PMS5003;33504;52.066;6.096;2023-06-14T00:30:40;9;8;
47741;PMS5003;33504;52.066;6.096;2023-06-14T00:33:06;10;9;
47741;PMS5003;33504;52.066;6.096;2023-06-14T00:35:33;10;10;
47741;PMS5003;33504;52.066;6.096;2023-06-14T00:38:00;9;8;
47741;PMS5003;33504;52.066;6.096;2023-06-14T00:40:26;10;9;
47741;PMS5003;33504;52.066;6.096;2023-06-14T00:42:53;10;10;
47741;PMS5003;33504;52.066;6.096;2023-06-14T00:45:20;8;8;
47741;PMS5003;33504;52.066;6.096;2023-06-14T00:47:47;10;9;
47741;PMS5003;33504;52.066;6.096;2023-06-14T00:50:16;11;10;
47741;PMS5003;33504;52.066;6.096;2023-06-14T00:52:44;9;9;
47741;PMS5003;33504;52.066;6.096;2023-06-14T00:55:11;10;10;
47741;PMS5003;33504;52.066;6.096;2023-06-14T00:57:38;12;11;
47741;PMS5003;33504;52.066;6.096;2023-06-14T01:00:06;9;9;
47741;PMS5003;33504;52.066;6.096;2023-06-14T01:02:35;9;9;
47741;PMS5003;33504;52.066;6.096;2023-06-14T01:05:02;6;6;
47741;PMS5003;33504;52.066;6.096;2023-06-14T01:07:33;9;9;
47741;PMS5003;33504;52.066;6.096;2023-06-14T01:10:11;10;10;
47741;PMS5003;33504;52.066;6.096;2023-06-14T01:12:51;11;10;
47741;PMS5003;33504;52.066;6.096;2023-06-14T01:15:24;10;10;
47741;PMS5003;33504;52.066;6.096;2023-06-14T01:17:53;8;8;
47741;PMS5003;33504;52.066;6.096;2023-06-14T01:20:21;11;11;
47741;PMS5003;33504;52.066;6.096;2023-06-14T01:22:50;12;12;
47741;PMS5003;33504;52.066;6.096;2023-06-14T01:25:17;13;13;
47741;PMS5003;33504;52.066;6.096;2023-06-14T01:27:44;16;16;
47741;PMS5003;33504;52.066;6.096;2023-06-14T01:30:11;22;21;
47741;PMS5003;33504;52.066;6.096;2023-06-14T01:32:38;16;16;
47741;PMS5003;33504;52.066;6.096;2023-06-14T01:35:05;23;23;
47741;PMS5003;33504;52.066;6.096;2023-06-14T01:37:33;28;27;
47741;PMS5003;33504;52.066;6.096;2023-06-14T01:40:01;22;21;
47741;PMS5003;33504;52.066;6.096;2023-06-14T01:42:28;10;10;
47741;PMS5003;33504;52.066;6.096;2023-06-14T01:44:56;24;23;
47741;PMS5003;33504;52.066;6.096;2023-06-14T01:47:23;16;16;
47741;PMS5003;33504;52.066;6.096;2023-06-14T01:49:51;11;11;
47741;PMS5003;33504;52.066;6.096;2023-06-14T01:52:18;9;9;
47741;PMS5003;33504;52.066;6.096;2023-06-14T01:54:45;10;10;
47741;PMS5003;33504;52.066;6.096;2023-06-14T01:57:12;9;9;
47741;PMS5003;33504;52.066;6.096;2023-06-14T01:59:38;8;8;
47741;PMS5003;33504;52.066;6.096;2023-06-14T02:02:05;10;10;
47741;PMS5003;33504;52.066;6.096;2023-06-14T02:04:32;11;10;
47741;PMS5003;33504;52.066;6.096;2023-06-14T02:06:58;10;10;
47741;PMS5003;33504;52.066;6.096;2023-06-14T02:09:26;9;9;
47741;PMS5003;33504;52.066;6.096;2023-06-14T02:11:53;10;10;
47741;PMS5003;33504;52.066;6.096;2023-06-14T02:14:20;9;9;
47741;PMS5003;33504;52.066;6.096;2023-06-14T02:16:47;11;10;
47741;PMS5003;33504;52.066;6.096;2023-06-14T02:19:14;12;11;
47741;PMS5003;33504;52.066;6.096;2023-06-14T02:21:41;15;14;
47741;PMS5003;33504;52.066;6.096;2023-06-14T02:24:08;16;16;
47741;PMS5003;33504;52.066;6.096;2023-06-14T02:26:36;17;16;
47741;PMS5003;33504;52.066;6.096;2023-06-14T02:29:03;24;24;
47741;PMS5003;33504;52.066;6.096;2023-06-14T02:31:31;11;11;
47741;PMS5003;33504;52.066;6.096;2023-06-14T02:33:58;11;11;
47741;PMS5003;33504;52.066;6.096;2023-06-14T02:36:25;9;9;
47741;PMS5003;33504;52.066;6.096;2023-06-14T02:38:51;10;10;
47741;PMS5003;33504;52.066;6.096;2023-06-14T02:41:18;12;11;
47741;PMS5003;33504;52.066;6.096;2023-06-14T02:43:45;8;8;
47741;PMS5003;33504;52.066;6.096;2023-06-14T02:46:12;22;22;
47741;PMS5003;33504;52.066;6.096;2023-06-14T02:48:39;10;9;
47741;PMS5003;33504;52.066;6.096;2023-06-14T02:51:06;11;10;
47741;PMS5003;33504;52.066;6.096;2023-06-14T02:53:32;10;9;
47741;PMS5003;33504;52.066;6.096;2023-06-14T02:55:59;9;9;
47741;PMS5003;33504;52.066;6.096;2023-06-14T02:58:26;10;10;
47741;PMS5003;33504;52.066;6.096;2023-06-14T03:00:53;8;8;
47741;PMS5003;33504;52.066;6.096;2023-06-14T03:03:20;12;11;
47741;PMS5003;33504;52.066;6.096;2023-06-14T03:05:47;14;13;
47741;PMS5003;33504;52.066;6.096;2023-06-14T03:08:15;12;11;
47741;PMS5003;33504;52.066;6.096;2023-06-14T03:10:42;10;9;
47741;PMS5003;33504;52.066;6.096;2023-06-14T03:13:09;9;9;
47741;PMS5003;33504;52.066;6.096;2023-06-14T03:15:36;10;9;
47741;PMS5003;33504;52.066;6.096;2023-06-14T03:18:02;12;12;
47741;PMS5003;33504;52.066;6.096;2023-06-14T03:20:29;11;11;
47741;PMS5003;33504;52.066;6.096;2023-06-14T03:22:56;10;8;
47741;PMS5003;33504;52.066;6.096;2023-06-14T03:25:22;11;10;
47741;PMS5003;33504;52.066;6.096;2023-06-14T03:27:49;11;11;
47741;PMS5003;33504;52.066;6.096;2023-06-14T03:30:16;10;9;
47741;PMS5003;33504;52.066;6.096;2023-06-14T03:32:43;11;11;
47741;PMS5003;33504;52.066;6.096;2023-06-14T03:35:10;10;10;
47741;PMS5003;33504;52.066;6.096;2023-06-14T03:37:37;9;9;
47741;PMS5003;33504;52.066;6.096;2023-06-14T03:40:04;10;9;
47741;PMS5003;33504;52.066;6.096;2023-06-14T03:42:32;10;10;
47741;PMS5003;33504;52.066;6.096;2023-06-14T03:44:58;9;9;
47741;PMS5003;33504;52.066;6.096;2023-06-14T03:47:25;10;9;
47741;PMS5003;33504;52.066;6.096;2023-06-14T03:49:52;10;10;
47741;PMS5003;33504;52.066;6.096;2023-06-14T03:52:18;11;10;
47741;PMS5003;33504;52.066;6.096;2023-06-14T03:54:45;10;9;
47741;PMS5003;33504;52.066;6.096;2023-06-14T03:57:12;10;9;
47741;PMS5003;33504;52.066;6.096;2023-06-14T03:59:39;12;12;
47741;PMS5003;33504;52.066;6.096;2023-06-14T04:02:06;11;10;
47741;PMS5003;33504;52.066;6.096;2023-06-14T04:04:33;11;11;
47741;PMS5003;33504;52.066;6.096;2023-06-14T04:06:59;10;10;
47741;PMS5003;33504;52.066;6.096;2023-06-14T04:09:26;9;9;
47741;PMS5003;33504;52.066;6.096;2023-06-14T04:11:53;8;8;
47741;PMS5003;33504;52.066;6.096;2023-06-14T04:14:20;9;8;
47741;PMS5003;33504;52.066;6.096;2023-06-14T04:16:47;10;10;
47741;PMS5003;33504;52.066;6.096;2023-06-14T04:19:15;12;10;
47741;PMS5003;33504;52.066;6.096;2023-06-14T04:21:41;10;8;
47741;PMS5003;33504;52.066;6.096;2023-06-14T04:24:08;10;10;
47741;PMS5003;33504;52.066;6.096;2023-06-14T04:26:35;8;8;
47741;PMS5003;33504;52.066;6.096;2023-06-14T04:29:02;10;10;
47741;PMS5003;33504;52.066;6.096;2023-06-14T04:31:28;14;13;
47741;PMS5003;33504;52.066;6.096;2023-06-14T04:33:56;12;12;
47741;PMS5003;33504;52.066;6.096;2023-06-14T04:36:23;13;13;
47741;PMS5003;33504;52.066;6.096;2023-06-14T04:38:50;10;10;
47741;PMS5003;33504;52.066;6.096;2023-06-14T04:41:18;11;11;
47741;PMS5003;33504;52.066;6.096;2023-06-14T04:43:44;9;9;
47741;PMS5003;33504;52.066;6.096;2023-06-14T04:46:11;10;9;
47741;PMS5003;33504;52.066;6.096;2023-06-14T04:48:38;10;10;
47741;PMS5003;33504;52.066;6.096;2023-06-14T04:51:05;11;9;
47741;PMS5003;33504;52.066;6.096;2023-06-14T04:53:33;10;10;
47741;PMS5003;33504;52.066;6.096;2023-06-14T04:56:00;9;9;
47741;PMS5003;33504;52.066;6.096;2023-06-14T04:58:26;10;9;
47741;PMS5003;33504;52.066;6.096;2023-06-14T05:00:54;12;12;
47741;PMS5003;33504;52.066;6.096;2023-06-14T05:03:21;7;7;
47741;PMS5003;33504;52.066;6.096;2023-06-14T05:05:49;10;10;
47741;PMS5003;33504;52.066;6.096;2023-06-14T05:08:16;11;11;
47741;PMS5003;33504;52.066;6.096;2023-06-14T05:10:43;10;9;
47741;PMS5003;33504;52.066;6.096;2023-06-14T05:13:10;10;10;
47741;PMS5003;33504;52.066;6.096;2023-06-14T05:15:36;9;8;
47741;PMS5003;33504;52.066;6.096;2023-06-14T05:18:03;10;9;
47741;PMS5003;33504;52.066;6.096;2023-06-14T05:20:30;10;9;
47741;PMS5003;33504;52.066;6.096;2023-06-14T05:22:56;8;8;
47741;PMS5003;33504;52.066;6.096;2023-06-14T05:25:23;9;8;
47741;PMS5003;33504;52.066;6.096;2023-06-14T05:27:51;10;9;
47741;PMS5003;33504;52.066;6.096;2023-06-14T05:30:18;11;9;
47741;PMS5003;33504;52.066;6.096;2023-06-14T05:32:44;8;8;
47741;PMS5003;33504;52.066;6.096;2023-06-14T05:35:11;7;7;
47741;PMS5003;33504;52.066;6.096;2023-06-14T05:37:38;9;9;
47741;PMS5003;33504;52.066;6.096;2023-06-14T05:40:05;8;8;
47741;PMS5003;33504;52.066;6.096;2023-06-14T05:42:33;11;9;
47741;PMS5003;33504;52.066;6.096;2023-06-14T05:45:00;8;8;
47741;PMS5003;33504;52.066;6.096;2023-06-14T05:47:26;11;11;
47741;PMS5003;33504;52.066;6.096;2023-06-14T05:49:53;15;14;
47741;PMS5003;33504;52.066;6.096;2023-06-14T05:52:21;14;14;
47741;PMS5003;33504;52.066;6.096;2023-06-14T05:54:48;10;10;
47741;PMS5003;33504;52.066;6.096;2023-06-14T05:57:15;9;9;
47741;PMS5003;33504;52.066;6.096;2023-06-14T05:59:42;10;10;
47741;PMS5003;33504;52.066;6.096;2023-06-14T06:02:09;10;9;
47741;PMS5003;33504;52.066;6.096;2023-06-14T06:04:36;11;10;
47741;PMS5003;33504;52.066;6.096;2023-06-14T06:07:03;10;9;
47741;PMS5003;33504;52.066;6.096;2023-06-14T06:09:30;10;10;
47741;PMS5003;33504;52.066;6.096;2023-06-14T06:11:57;9;9;
47741;PMS5003;33504;52.066;6.096;2023-06-14T06:14:24;11;10;
47741;PMS5003;33504;52.066;6.096;2023-06-14T06:16:51;11;11;
47741;PMS5003;33504;52.066;6.096;2023-06-14T06:19:17;8;8;
47741;PMS5003;33504;52.066;6.096;2023-06-14T06:21:45;9;9;
47741;PMS5003;33504;52.066;6.096;2023-06-14T06:24:11;11;11;
47741;PMS5003;33504;52.066;6.096;2023-06-14T06:26:39;8;8;
47741;PMS5003;33504;52.066;6.096;2023-06-14T06:29:06;9;9;
47741;PMS5003;33504;52.066;6.096;2023-06-14T06:31:33;11;11;
47741;PMS5003;33504;52.066;6.096;2023-06-14T06:34:00;10;9;
47741;PMS5003;33504;52.066;6.096;2023-06-14T06:36:28;14;14;
47741;PMS5003;33504;52.066;6.096;2023-06-14T06:38:55;8;8;
47741;PMS5003;33504;52.066;6.096;2023-06-14T06:41:23;8;8;
47741;PMS5003;33504;52.066;6.096;2023-06-14T06:43:50;11;9;
47741;PMS5003;33504;52.066;6.096;2023-06-14T06:46:17;8;7;
47741;PMS5003;33504;52.066;6.096;2023-06-14T06:48:45;6;6;
47741;PMS5003;33504;52.066;6.096;2023-06-14T06:51:12;9;8;
47741;PMS5003;33504;52.066;6.096;2023-06-14T06:53:41;9;9;
47741;PMS5003;33504;52.066;6.096;2023-06-14T06:56:09;8;8;
47741;PMS5003;33504;52.066;6.096;2023-06-14T06:58:36;8;7;
47741;PMS5003;33504;52.066;6.096;2023-06-14T07:01:03;7;7;
47741;PMS5003;33504;52.066;6.096;2023-06-14T07:03:29;51;51;
47741;PMS5003;33504;52.066;6.096;2023-06-14T07:05:56;76;76;
47741;PMS5003;33504;52.066;6.096;2023-06-14T07:08:23;17;17;
47741;PMS5003;33504;52.066;6.096;2023-06-14T07:10:50;16;16;
47741;PMS5003;33504;52.066;6.096;2023-06-14T07:13:17;12;12;
47741;PMS5003;33504;52.066;6.096;2023-06-14T07:15:44;9;9;
47741;PMS5003;33504;52.066;6.096;2023-06-14T07:18:11;6;6;
47741;PMS5003;33504;52.066;6.096;2023-06-14T07:20:38;8;7;
47741;PMS5003;33504;52.066;6.096;2023-06-14T07:23:06;8;7;
47741;PMS5003;33504;52.066;6.096;2023-06-14T07:25:32;8;8;
47741;PMS5003;33504;52.066;6.096;2023-06-14T07:27:59;7;7;
47741;PMS5003;33504;52.066;6.096;2023-06-14T07:30:26;6;6;
47741;PMS5003;33504;52.066;6.096;2023-06-14T07:32:54;7;7;
47741;PMS5003;33504;52.066;6.096;2023-06-14T07:35:21;5;5;
47741;PMS5003;33504;52.066;6.096;2023-06-14T07:37:48;5;5;
47741;PMS5003;33504;52.066;6.096;2023-06-14T07:40:15;5;5;
47741;PMS5003;33504;52.066;6.096;2023-06-14T07:42:43;6;5;
47741;PMS5003;33504;52.066;6.096;2023-06-14T07:45:12;6;5;
47741;PMS5003;33504;52.066;6.096;2023-06-14T07:47:40;6;6;
47741;PMS5003;33504;52.066;6.096;2023-06-14T07:50:08;7;6;
47741;PMS5003;33504;52.066;6.096;2023-06-14T07:52:35;6;5;
47741;PMS5003;33504;52.066;6.096;2023-06-14T07:55:03;9;9;
47741;PMS5003;33504;52.066;6.096;2023-06-14T07:57:31;6;6;
47741;PMS5003;33504;52.066;6.096;2023-06-14T07:59:59;5;5;
47741;PMS5003;33504;52.066;6.096;2023-06-14T08:02:26;8;8;
47741;PMS5003;33504;52.066;6.096;2023-06-14T08:04:53;8;8;
47741;PMS5003;33504;52.066;6.096;2023-06-14T08:07:21;7;6;
47741;PMS5003;33504;52.066;6.096;2023-06-14T08:09:49;7;7;
47741;PMS5003;33504;52.066;6.096;2023-06-14T08:12:17;6;6;
47741;PMS5003;33504;52.066;6.096;2023-06-14T08:14:45;5;5;
47741;PMS5003;33504;52.066;6.096;2023-06-14T08:17:12;8;8;
47741;PMS5003;33504;52.066;6.096;2023-06-14T08:19:39;8;8;
47741;PMS5003;33504;52.066;6.096;2023-06-14T08:22:07;6;6;
47741;PMS5003;33504;52.066;6.096;2023-06-14T08:24:33;5;5;
47741;PMS5003;33504;52.066;6.096;2023-06-14T08:27:01;7;7;
47741;PMS5003;33504;52.066;6.096;2023-06-14T08:29:28;6;6;
47741;PMS5003;33504;52.066;6.096;2023-06-14T08:31:55;7;7;
47741;PMS5003;33504;52.066;6.096;2023-06-14T08:34:23;5;5;
47741;PMS5003;33504;52.066;6.096;2023-06-14T08:36:50;4;4;
47741;PMS5003;33504;52.066;6.096;2023-06-14T08:39:18;5;5;
47741;PMS5003;33504;52.066;6.096;2023-06-14T08:41:46;5;5;
47741;PMS5003;33504;52.066;6.096;2023-06-14T08:44:15;5;5;
47741;PMS5003;33504;52.066;6.096;2023-06-14T08:46:43;4;4;
47741;PMS5003;33504;52.066;6.096;2023-06-14T08:49:11;13;12;
47741;PMS5003;33504;52.066;6.096;2023-06-14T08:51:39;13;13;
47741;PMS5003;33504;52.066;6.096;2023-06-14T08:54:06;9;9;
47741;PMS5003;33504;52.066;6.096;2023-06-14T08:56:34;6;6;
47741;PMS5003;33504;52.066;6.096;2023-06-14T08:59:04;5;5;
47741;PMS5003;33504;52.066;6.096;2023-06-14T09:01:33;5;5;
47741;PMS5003;33504;52.066;6.096;2023-06-14T09:04:00;4;4;
47741;PMS5003;33504;52.066;6.096;2023-06-14T09:06:27;5;4;
47741;PMS5003;33504;52.066;6.096;2023-06-14T09:08:55;7;7;
47741;PMS5003;33504;52.066;6.096;2023-06-14T09:11:22;5;4;
47741;PMS5003;33504;52.066;6.096;2023-06-14T09:13:50;6;5;
47741;PMS5003;33504;52.066;6.096;2023-06-14T09:16:17;3;3;
47741;PMS5003;33504;52.066;6.096;2023-06-14T09:18:45;5;5;
47741;PMS5003;33504;52.066;6.096;2023-06-14T09:21:14;3;3;
47741;PMS5003;33504;52.066;6.096;2023-06-14T09:23:42;5;5;
47741;PMS5003;33504;52.066;6.096;2023-06-14T09:26:12;3;3;
47741;PMS5003;33504;52.066;6.096;2023-06-14T09:28:41;5;5;
47741;PMS5003;33504;52.066;6.096;2023-06-14T09:31:09;5;4;
47741;PMS5003;33504;52.066;6.096;2023-06-14T09:33:36;4;4;
47741;PMS5003;33504;52.066;6.096;2023-06-14T09:36:04;5;4;
47741;PMS5003;33504;52.066;6.096;2023-06-14T09:38:35;4;4;
47741;PMS5003;33504;52.066;6.096;2023-06-14T09:41:03;3;3;
47741;PMS5003;33504;52.066;6.096;2023-06-14T09:43:30;5;4;
47741;PMS5003;33504;52.066;6.096;2023-06-14T09:45:57;4;4;
47741;PMS5003;33504;52.066;6.096;2023-06-14T09:48:25;6;5;
47741;PMS5003;33504;52.066;6.096;2023-06-14T09:50:52;5;5;
47741;PMS5003;33504;52.066;6.096;2023-06-14T09:53:24;4;4;
47741;PMS5003;33504;52.066;6.096;2023-06-14T09:55:52;4;4;
47741;PMS5003;33504;52.066;6.096;2023-06-14T09:58:24;5;5;
47741;PMS5003;33504;52.066;6.096;2023-06-14T10:00:54;5;5;
47741;PMS5003;33504;52.066;6.096;2023-06-14T10:03:25;4;4;
47741;PMS5003;33504;52.066;6.096;2023-06-14T10:05:54;4;4;
47741;PMS5003;33504;52.066;6.096;2023-06-14T10:08:24;4;4;
47741;PMS5003;33504;52.066;6.096;2023-06-14T10:10:55;4;4;
47741;PMS5003;33504;52.066;6.096;2023-06-14T10:13:22;3;3;
47741;PMS5003;33504;52.066;6.096;2023-06-14T10:15:54;3;3;
47741;PMS5003;33504;52.066;6.096;2023-06-14T10:18:28;4;3;
47741;PMS5003;33504;52.066;6.096;2023-06-14T10:21:04;3;3;
47741;PMS5003;33504;52.066;6.096;2023-06-14T10:23:40;4;4;
47741;PMS5003;33504;52.066;6.096;2023-06-14T10:26:17;5;5;
47741;PMS5003;33504;52.066;6.096;2023-06-14T10:28:55;4;4;
47741;PMS5003;33504;52.066;6.096;2023-06-14T10:31:26;6;6;
47741;PMS5003;33504;52.066;6.096;2023-06-14T10:34:07;2;2;
47741;PMS5003;33504;52.066;6.096;2023-06-14T10:36:34;5;4;
47741;PMS5003;33504;52.066;6.096;2023-06-14T10:39:04;6;5;
47741;PMS5003;33504;52.066;6.096;2023-06-14T10:41:34;4;4;
47741;PMS5003;33504;52.066;6.096;2023-06-14T10:44:42;4;4;
47741;PMS5003;33504;52.066;6.096;2023-06-14T10:47:11;4;4;
47741;PMS5003;33504;52.066;6.096;2023-06-14T10:49:54;2;2;
47741;PMS5003;33504;52.066;6.096;2023-06-14T10:52:23;3;3;
47741;PMS5003;33504;52.066;6.096;2023-06-14T10:54:55;5;4;
47741;PMS5003;33504;52.066;6.096;2023-06-14T10:57:25;3;3;
47741;PMS5003;33504;52.066;6.096;2023-06-14T10:59:52;4;4;
47741;PMS5003;33504;52.066;6.096;2023-06-14T11:02:31;5;4;
47741;PMS5003;33504;52.066;6.096;2023-06-14T11:05:14;6;5;
47741;PMS5003;33504;52.066;6.096;2023-06-14T11:07:43;3;3;
47741;PMS5003;33504;52.066;6.096;2023-06-14T11:10:25;7;6;
47741;PMS5003;33504;52.066;6.096;2023-06-14T11:12:56;5;4;
47741;PMS5003;33504;52.066;6.096;2023-06-14T11:15:27;5;5;
47741;PMS5003;33504;52.066;6.096;2023-06-14T11:17:54;5;5;
47741;PMS5003;33504;52.066;6.096;2023-06-14T11:20:24;6;5;
47741;PMS5003;33504;52.066;6.096;2023-06-14T11:22:52;5;5;
47741;PMS5003;33504;52.066;6.096;2023-06-14T11:25:19;5;5;
47741;PMS5003;33504;52.066;6.096;2023-06-14T11:27:48;4;4;
47741;PMS5003;33504;52.066;6.096;2023-06-14T11:30:16;5;5;
47741;PMS5003;33504;52.066;6.096;2023-06-14T11:32:46;3;3;
47741;PMS5003;33504;52.066;6.096;2023-06-14T11:35:13;5;5;
47741;PMS5003;33504;52.066;6.096;2023-06-14T11:37:40;5;5;
47741;PMS5003;33504;52.066;6.096;2023-06-14T11:40:08;4;4;
47741;PMS5003;33504;52.066;6.096;2023-06-14T11:42:36;4;4;
47741;PMS5003;33504;52.066;6.096;2023-06-14T11:45:03;4;4;
47741;PMS5003;33504;52.066;6.096;2023-06-14T11:47:34;6;5;
47741;PMS5003;33504;52.066;6.096;2023-06-14T11:50:01;2;2;
47741;PMS5003;33504;52.066;6.096;2023-06-14T11:52:30;5;5;
47741;PMS5003;33504;52.066;6.096;2023-06-14T11:54:57;4;4;
47741;PMS5003;33504;52.066;6.096;2023-06-14T11:57:25;4;4;
47741;PMS5003;33504;52.066;6.096;2023-06-14T11:59:52;4;4;
47741;PMS5003;33504;52.066;6.096;2023-06-14T12:02:21;7;6;
47741;PMS5003;33504;52.066;6.096;2023-06-14T12:04:48;4;3;
47741;PMS5003;33504;52.066;6.096;2023-06-14T12:07:16;4;4;
47741;PMS5003;33504;52.066;6.096;2023-06-14T12:10:03;5;5;
47741;PMS5003;33504;52.066;6.096;2023-06-14T12:12:31;5;5;
47741;PMS5003;33504;52.066;6.096;2023-06-14T12:15:02;5;5;
47741;PMS5003;33504;52.066;6.096;2023-06-14T12:17:31;3;3;
47741;PMS5003;33504;52.066;6.096;2023-06-14T12:20:04;4;4;
47741;PMS5003;33504;52.066;6.096;2023-06-14T12:22:32;3;3;
47741;PMS5003;33504;52.066;6.096;2023-06-14T12:25:00;5;5;
47741;PMS5003;33504;52.066;6.096;2023-06-14T12:27:27;5;5;
47741;PMS5003;33504;52.066;6.096;2023-06-14T12:30:02;4;4;
47741;PMS5003;33504;52.066;6.096;2023-06-14T12:32:30;4;4;
47741;PMS5003;33504;52.066;6.096;2023-06-14T12:34:58;4;4;
47741;PMS5003;33504;52.066;6.096;2023-06-14T12:37:25;4;4;
47741;PMS5003;33504;52.066;6.096;2023-06-14T12:39:52;5;4;
47741;PMS5003;33504;52.066;6.096;2023-06-14T12:42:20;3;3;
47741;PMS5003;33504;52.066;6.096;2023-06-14T12:44:47;6;6;
47741;PMS5003;33504;52.066;6.096;2023-06-14T12:47:14;3;3;
47741;PMS5003;33504;52.066;6.096;2023-06-14T12:49:41;3;3;
47741;PMS5003;33504;52.066;6.096;2023-06-14T12:52:09;6;6;
47741;PMS5003;33504;52.066;6.096;2023-06-14T12:54:36;4;4;
47741;PMS5003;33504;52.066;6.096;2023-06-14T12:57:04;4;4;
47741;PMS5003;33504;52.066;6.096;2023-06-14T12:59:31;4;4;
47741;PMS5003;33504;52.066;6.096;2023-06-14T13:01:59;4;4;
47741;PMS5003;33504;52.066;6.096;2023-06-14T13:04:36;4;4;
47741;PMS5003;33504;52.066;6.096;2023-06-14T13:07:03;4;4;
47741;PMS5003;33504;52.066;6.096;2023-06-14T13:09:31;6;6;
47741;PMS5003;33504;52.066;6.096;2023-06-14T13:11:59;5;5;
47741;PMS5003;33504;52.066;6.096;2023-06-14T13:14:26;4;4;
47741;PMS5003;33504;52.066;6.096;2023-06-14T13:16:53;5;5;
47741;PMS5003;33504;52.066;6.096;2023-06-14T13:19:21;4;4;
47741;PMS5003;33504;52.066;6.096;2023-06-14T13:21:48;4;4;
47741;PMS5003;33504;52.066;6.096;2023-06-14T13:24:15;4;4;
47741;PMS5003;33504;52.066;6.096;2023-06-14T13:26:42;3;3;
47741;PMS5003;33504;52.066;6.096;2023-06-14T13:29:10;4;4;
47741;PMS5003;33504;52.066;6.096;2023-06-14T13:31:37;3;3;
47741;PMS5003;33504;52.066;6.096;2023-06-14T13:34:05;2;2;
47741;PMS5003;33504;52.066;6.096;2023-06-14T13:36:33;3;3;
47741;PMS5003;33504;52.066;6.096;2023-06-14T13:39:00;4;4;
47741;PMS5003;33504;52.066;6.096;2023-06-14T13:41:28;7;5;
47741;PMS5003;33504;52.066;6.096;2023-06-14T13:43:54;4;4;
47741;PMS5003;33504;52.066;6.096;2023-06-14T13:46:22;4;4;
47741;PMS5003;33504;52.066;6.096;2023-06-14T13:48:49;5;5;
47741;PMS5003;33504;52.066;6.096;2023-06-14T13:51:17;3;3;
47741;PMS5003;33504;52.066;6.096;2023-06-14T13:53:45;5;5;
47741;PMS5003;33504;52.066;6.096;2023-06-14T13:56:12;2;2;
47741;PMS5003;33504;52.066;6.096;2023-06-14T13:58:39;5;5;
47741;PMS5003;33504;52.066;6.096;2023-06-14T14:01:07;4;4;
47741;PMS5003;33504;52.066;6.096;2023-06-14T14:03:35;4;4;
47741;PMS5003;33504;52.066;6.096;2023-06-14T14:06:03;3;3;
47741;PMS5003;33504;52.066;6.096;2023-06-14T14:08:30;3;3;
47741;PMS5003;33504;52.066;6.096;2023-06-14T14:10:58;4;4;
47741;PMS5003;33504;52.066;6.096;2023-06-14T14:13:25;4;4;
47741;PMS5003;33504;52.066;6.096;2023-06-14T14:15:52;3;3;
47741;PMS5003;33504;52.066;6.096;2023-06-14T14:18:19;5;5;
47741;PMS5003;33504;52.066;6.096;2023-06-14T14:20:47;4;4;
47741;PMS5003;33504;52.066;6.096;2023-06-14T14:23:14;5;5;
47741;PMS5003;33504;52.066;6.096;2023-06-14T14:25:41;4;4;
47741;PMS5003;33504;52.066;6.096;2023-06-14T14:28:08;5;5;
47741;PMS5003;33504;52.066;6.096;2023-06-14T14:30:36;3;3;
47741;PMS5003;33504;52.066;6.096;2023-06-14T14:33:03;4;4;
47741;PMS5003;33504;52.066;6.096;2023-06-14T14:35:30;4;4;
47741;PMS5003;33504;52.066;6.096;2023-06-14T14:37:58;4;4;
47741;PMS5003;33504;52.066;6.096;2023-06-14T14:40:25;5;5;
47741;PMS5003;33504;52.066;6.096;2023-06-14T14:42:52;4;3;
47741;PMS5003;33504;52.066;6.096;2023-06-14T14:45:20;4;4;
47741;PMS5003;33504;52.066;6.096;2023-06-14T14:47:47;3;3;
47741;PMS5003;33504;52.066;6.096;2023-06-14T14:50:14;5;4;
47741;PMS5003;33504;52.066;6.096;2023-06-14T14:52:42;5;5;
47741;PMS5003;33504;52.066;6.096;2023-06-14T14:55:09;5;5;
47741;PMS5003;33504;52.066;6.096;2023-06-14T14:57:36;6;5;
47741;PMS5003;33504;52.066;6.096;2023-06-14T15:00:04;5;5;
47741;PMS5003;33504;52.066;6.096;2023-06-14T15:02:32;4;4;
47741;PMS5003;33504;52.066;6.096;2023-06-14T15:04:59;4;4;
47741;PMS5003;33504;52.066;6.096;2023-06-14T15:07:26;4;4;
47741;PMS5003;33504;52.066;6.096;2023-06-14T15:09:54;6;6;
47741;PMS5003;33504;52.066;6.096;2023-06-14T15:12:21;4;4;
47741;PMS5003;33504;52.066;6.096;2023-06-14T15:14:49;4;4;
47741;PMS5003;33504;52.066;6.096;2023-06-14T15:17:17;6;6;
47741;PMS5003;33504;52.066;6.096;2023-06-14T15:19:44;5;4;
47741;PMS5003;33504;52.066;6.096;2023-06-14T15:22:11;4;4;
47741;PMS5003;33504;52.066;6.096;2023-06-14T15:24:38;4;4;
47741;PMS5003;33504;52.066;6.096;2023-06-14T15:27:06;6;4;
47741;PMS5003;33504;52.066;6.096;2023-06-14T15:29:33;6;5;
47741;PMS5003;33504;52.066;6.096;2023-06-14T15:32:01;4;4;
47741;PMS5003;33504;52.066;6.096;2023-06-14T15:34:28;5;5;
47741;PMS5003;33504;52.066;6.096;2023-06-14T15:36:56;6;5;
47741;PMS5003;33504;52.066;6.096;2023-06-14T15:39:23;4;4;
47741;PMS5003;33504;52.066;6.096;2023-06-14T15:41:50;6;6;
47741;PMS5003;33504;52.066;6.096;2023-06-14T15:44:18;6;6;
47741;PMS5003;33504;52.066;6.096;2023-06-14T15:46:45;4;4;
47741;PMS5003;33504;52.066;6.096;2023-06-14T15:49:13;6;6;
47741;PMS5003;33504;52.066;6.096;2023-06-14T15:51:40;5;5;
47741;PMS5003;33504;52.066;6.096;2023-06-14T15:54:07;5;5;
47741;PMS5003;33504;52.066;6.096;2023-06-14T15:56:34;5;5;
47741;PMS5003;33504;52.066;6.096;2023-06-14T15:59:02;3;3;
47741;PMS5003;33504;52.066;6.096;2023-06-14T16:01:29;5;4;
47741;PMS5003;33504;52.066;6.096;2023-06-14T16:03:56;4;4;
47741;PMS5003;33504;52.066;6.096;2023-06-14T16:06:24;4;4;
47741;PMS5003;33504;52.066;6.096;2023-06-14T16:08:51;7;6;
47741;PMS5003;33504;52.066;6.096;2023-06-14T16:11:18;5;5;
47741;PMS5003;33504;52.066;6.096;2023-06-14T16:13:46;4;4;
47741;PMS5003;33504;52.066;6.096;2023-06-14T16:16:13;4;4;
47741;PMS5003;33504;52.066;6.096;2023-06-14T16:18:40;5;5;
47741;PMS5003;33504;52.066;6.096;2023-06-14T16:21:08;7;7;
47741;PMS5003;33504;52.066;6.096;2023-06-14T16:23:35;4;4;
47741;PMS5003;33504;52.066;6.096;2023-06-14T16:26:02;3;3;
47741;PMS5003;33504;52.066;6.096;2023-06-14T16:28:30;6;6;
47741;PMS5003;33504;52.066;6.096;2023-06-14T16:30:57;5;5;
47741;PMS5003;33504;52.066;6.096;2023-06-14T16:33:24;9;9;
47741;PMS5003;33504;52.066;6.096;2023-06-14T16:35:51;5;5;
47741;PMS5003;33504;52.066;6.096;2023-06-14T16:38:19;5;5;
47741;PMS5003;33504;52.066;6.096;2023-06-14T16:40:46;6;5;
47741;PMS5003;33504;52.066;6.096;2023-06-14T16:43:14;5;5;
47741;PMS5003;33504;52.066;6.096;2023-06-14T16:45:41;7;7;
47741;PMS5003;33504;52.066;6.096;2023-06-14T16:48:08;4;4;